sensor_id;sensor_type;location;lat;lon;timestamp;temperature;humidity
84902;DHT22;75166;51.198;6.010;2024-03-06T00:02:08;10.80;72.70
84902;DHT22;75166;51.198;6.010;2024-03-06T00:04:34;10.80;72.70
84902;DHT22;75166;51.198;6.010;2024-03-06T00:07:00;10.70;72.70
84902;DHT22;75166;51.198;6.010;2024-03-06T00:09:26;10.70;72.60
84902;DHT22;75166;51.198;6.010;2024-03-06T00:11:55;10.80;72.70
84902;DHT22;75166;51.198;6.010;2024-03-06T00:14:22;10.80;72.70
84902;DHT22;75166;51.198;6.010;2024-03-06T00:16:48;10.70;72.50
84902;DHT22;75166;51.198;6.010;2024-03-06T00:19:17;10.70;72.60
84902;DHT22;75166;51.198;6.010;2024-03-06T00:21:43;10.70;72.90
84902;DHT22;75166;51.198;6.010;2024-03-06T00:24:14;10.70;73.00
84902;DHT22;75166;51.198;6.010;2024-03-06T00:26:44;10.70;73.00
84902;DHT22;75166;51.198;6.010;2024-03-06T00:29:10;10.70;72.90
84902;DHT22;75166;51.198;6.010;2024-03-06T00:31:37;10.70;72.90
84902;DHT22;75166;51.198;6.010;2024-03-06T00:34:07;10.70;72.90
84902;DHT22;75166;51.198;6.010;2024-03-06T00:36:33;10.70;72.90
84902;DHT22;75166;51.198;6.010;2024-03-06T00:38:59;10.70;72.90
84902;DHT22;75166;51.198;6.010;2024-03-06T00:41:24;10.70;72.90
84902;DHT22;75166;51.198;6.010;2024-03-06T00:43:50;10.60;73.00
84902;DHT22;75166;51.198;6.010;2024-03-06T00:46:15;10.60;73.10
84902;DHT22;75166;51.198;6.010;2024-03-06T00:48:41;10.60;73.10
84902;DHT22;75166;51.198;6.010;2024-03-06T00:51:07;10.60;73.00
84902;DHT22;75166;51.198;6.010;2024-03-06T00:53:36;10.60;73.00
84902;DHT22;75166;51.198;6.010;2024-03-06T00:56:02;10.70;73.10
84902;DHT22;75166;51.198;6.010;2024-03-06T00:58:28;10.60;73.00
84902;DHT22;75166;51.198;6.010;2024-03-06T01:00:54;10.60;73.10
84902;DHT22;75166;51.198;6.010;2024-03-06T01:03:19;10.60;73.20
84902;DHT22;75166;51.198;6.010;2024-03-06T01:05:45;10.60;73.30
84902;DHT22;75166;51.198;6.010;2024-03-06T01:08:11;10.60;73.30
84902;DHT22;75166;51.198;6.010;2024-03-06T01:10:37;10.60;73.20
84902;DHT22;75166;51.198;6.010;2024-03-06T01:13:02;10.60;73.20
84902;DHT22;75166;51.198;6.010;2024-03-06T01:15:28;10.60;74.00
84902;DHT22;75166;51.198;6.010;2024-03-06T01:17:54;10.60;73.20
84902;DHT22;75166;51.198;6.010;2024-03-06T01:20:19;10.60;73.10
84902;DHT22;75166;51.198;6.010;2024-03-06T01:22:45;10.60;73.20
84902;DHT22;75166;51.198;6.010;2024-03-06T01:25:12;10.50;73.30
84902;DHT22;75166;51.198;6.010;2024-03-06T01:27:37;10.50;73.30
84902;DHT22;75166;51.198;6.010;2024-03-06T01:30:03;10.50;73.40
84902;DHT22;75166;51.198;6.010;2024-03-06T01:32:29;10.50;73.30
84902;DHT22;75166;51.198;6.010;2024-03-06T01:34:55;10.50;73.20
84902;DHT22;75166;51.198;6.010;2024-03-06T01:37:21;10.50;73.20
84902;DHT22;75166;51.198;6.010;2024-03-06T01:39:46;10.50;73.20
84902;DHT22;75166;51.198;6.010;2024-03-06T01:42:12;10.50;73.30
84902;DHT22;75166;51.198;6.010;2024-03-06T01:44:38;10.50;73.30
84902;DHT22;75166;51.198;6.010;2024-03-06T01:47:03;10.40;73.40
84902;DHT22;75166;51.198;6.010;2024-03-06T01:49:29;10.40;73.30
84902;DHT22;75166;51.198;6.010;2024-03-06T01:51:56;10.50;73.30
84902;DHT22;75166;51.198;6.010;2024-03-06T01:54:23;10.40;73.30
84902;DHT22;75166;51.198;6.010;2024-03-06T01:56:49;10.40;73.20
84902;DHT22;75166;51.198;6.010;2024-03-06T01:59:17;10.40;73.10
84902;DHT22;75166;51.198;6.010;2024-03-06T02:01:44;10.40;73.20
84902;DHT22;75166;51.198;6.010;2024-03-06T02:04:11;10.40;73.30
84902;DHT22;75166;51.198;6.010;2024-03-06T02:06:41;10.40;73.50
84902;DHT22;75166;51.198;6.010;2024-03-06T02:09:07;10.30;73.30
84902;DHT22;75166;51.198;6.010;2024-03-06T02:11:33;10.30;73.30
84902;DHT22;75166;51.198;6.010;2024-03-06T02:13:59;10.30;73.30
84902;DHT22;75166;51.198;6.010;2024-03-06T02:16:25;10.30;73.20
84902;DHT22;75166;51.198;6.010;2024-03-06T02:18:52;10.40;73.30
84902;DHT22;75166;51.198;6.010;2024-03-06T02:21:20;10.30;73.10
84902;DHT22;75166;51.198;6.010;2024-03-06T02:23:46;10.30;73.20
84902;DHT22;75166;51.198;6.010;2024-03-06T02:26:12;10.30;73.30
84902;DHT22;75166;51.198;6.010;2024-03-06T02:28:37;10.30;73.40
84902;DHT22;75166;51.198;6.010;2024-03-06T02:31:03;10.30;73.40
84902;DHT22;75166;51.198;6.010;2024-03-06T02:33:32;10.30;73.40
84902;DHT22;75166;51.198;6.010;2024-03-06T02:35:59;10.30;73.30
84902;DHT22;75166;51.198;6.010;2024-03-06T02:38:25;10.20;73.30
84902;DHT22;75166;51.198;6.010;2024-03-06T02:40:51;10.20;73.30
84902;DHT22;75166;51.198;6.010;2024-03-06T02:43:16;10.20;73.30
84902;DHT22;75166;51.198;6.010;2024-03-06T02:45:42;10.20;73.30
84902;DHT22;75166;51.198;6.010;2024-03-06T02:48:08;10.20;73.50
84902;DHT22;75166;51.198;6.010;2024-03-06T02:50:33;10.20;73.50
84902;DHT22;75166;51.198;6.010;2024-03-06T02:52:59;10.20;73.50
84902;DHT22;75166;51.198;6.010;2024-03-06T02:55:25;10.20;73.50
84902;DHT22;75166;51.198;6.010;2024-03-06T02:57:50;10.20;73.50
84902;DHT22;75166;51.198;6.010;2024-03-06T03:00:16;10.30;73.50
84902;DHT22;75166;51.198;6.010;2024-03-06T03:02:42;10.20;73.40
84902;DHT22;75166;51.198;6.010;2024-03-06T03:05:09;10.20;73.50
84902;DHT22;75166;51.198;6.010;2024-03-06T03:07:34;10.10;73.50
84902;DHT22;75166;51.198;6.010;2024-03-06T03:10:00;10.10;73.70
84902;DHT22;75166;51.198;6.010;2024-03-06T03:12:26;10.10;73.60
84902;DHT22;75166;51.198;6.010;2024-03-06T03:14:51;10.10;73.70
84902;DHT22;75166;51.198;6.010;2024-03-06T03:17:18;10.10;73.50
84902;DHT22;75166;51.198;6.010;2024-03-06T03:19:45;10.10;73.50
84902;DHT22;75166;51.198;6.010;2024-03-06T03:22:10;10.10;73.50
84902;DHT22;75166;51.198;6.010;2024-03-06T03:24:36;10.10;73.50
84902;DHT22;75166;51.198;6.010;2024-03-06T03:27:05;10.10;73.50
84902;DHT22;75166;51.198;6.010;2024-03-06T03:29:31;10.00;73.70
84902;DHT22;75166;51.198;6.010;2024-03-06T03:31:57;10.00;73.70
84902;DHT22;75166;51.198;6.010;2024-03-06T03:34:23;10.00;73.70
84902;DHT22;75166;51.198;6.010;2024-03-06T03:36:48;10.00;73.50
84902;DHT22;75166;51.198;6.010;2024-03-06T03:39:14;10.00;73.50
84902;DHT22;75166;51.198;6.010;2024-03-06T03:41:46;10.00;73.50
84902;DHT22;75166;51.198;6.010;2024-03-06T03:44:17;10.00;73.40
84902;DHT22;75166;51.198;6.010;2024-03-06T03:46:43;10.00;73.40
84902;DHT22;75166;51.198;6.010;2024-03-06T03:49:09;10.00;73.60
84902;DHT22;75166;51.198;6.010;2024-03-06T03:51:35;10.00;73.70
84902;DHT22;75166;51.198;6.010;2024-03-06T03:54:01;9.90;73.60
84902;DHT22;75166;51.198;6.010;2024-03-06T03:56:27;9.90;73.50
84902;DHT22;75166;51.198;6.010;2024-03-06T03:58:53;9.90;74.20
84902;DHT22;75166;51.198;6.010;2024-03-06T04:01:19;9.90;73.40
84902;DHT22;75166;51.198;6.010;2024-03-06T04:03:44;9.90;73.40
84902;DHT22;75166;51.198;6.010;2024-03-06T04:06:10;9.90;73.30
84902;DHT22;75166;51.198;6.010;2024-03-06T04:08:36;9.90;73.50
84902;DHT22;75166;51.198;6.010;2024-03-06T04:11:03;9.80;73.60
84902;DHT22;75166;51.198;6.010;2024-03-06T04:13:29;9.90;73.70
84902;DHT22;75166;51.198;6.010;2024-03-06T04:15:55;9.80;73.50
84902;DHT22;75166;51.198;6.010;2024-03-06T04:18:21;9.90;73.50
84902;DHT22;75166;51.198;6.010;2024-03-06T04:20:47;9.90;73.40
84902;DHT22;75166;51.198;6.010;2024-03-06T04:23:12;9.80;73.30
84902;DHT22;75166;51.198;6.010;2024-03-06T04:25:38;9.90;73.40
84902;DHT22;75166;51.198;6.010;2024-03-06T04:28:05;9.80;73.20
84902;DHT22;75166;51.198;6.010;2024-03-06T04:30:33;9.80;73.30
84902;DHT22;75166;51.198;6.010;2024-03-06T04:32:58;9.80;73.50
84902;DHT22;75166;51.198;6.010;2024-03-06T04:35:24;9.80;73.50
84902;DHT22;75166;51.198;6.010;2024-03-06T04:37:50;9.80;73.50
84902;DHT22;75166;51.198;6.010;2024-03-06T04:40:16;9.80;74.20
84902;DHT22;75166;51.198;6.010;2024-03-06T04:42:46;9.80;73.30
84902;DHT22;75166;51.198;6.010;2024-03-06T04:45:15;9.80;73.30
84902;DHT22;75166;51.198;6.010;2024-03-06T04:47:41;9.70;73.20
84902;DHT22;75166;51.198;6.010;2024-03-06T04:50:10;9.70;73.20
84902;DHT22;75166;51.198;6.010;2024-03-06T04:52:40;9.70;73.40
84902;DHT22;75166;51.198;6.010;2024-03-06T04:55:07;9.70;73.50
84902;DHT22;75166;51.198;6.010;2024-03-06T04:57:34;9.60;73.40
84902;DHT22;75166;51.198;6.010;2024-03-06T04:59:59;9.70;73.30
84902;DHT22;75166;51.198;6.010;2024-03-06T05:02:27;9.70;73.20
84902;DHT22;75166;51.198;6.010;2024-03-06T05:04:53;9.70;73.10
84902;DHT22;75166;51.198;6.010;2024-03-06T05:07:18;9.70;73.10
84902;DHT22;75166;51.198;6.010;2024-03-06T05:09:44;9.60;73.00
84902;DHT22;75166;51.198;6.010;2024-03-06T05:12:10;9.60;73.20
84902;DHT22;75166;51.198;6.010;2024-03-06T05:14:36;9.60;73.30
84902;DHT22;75166;51.198;6.010;2024-03-06T05:17:02;9.50;73.30
84902;DHT22;75166;51.198;6.010;2024-03-06T05:19:28;9.60;73.30
84902;DHT22;75166;51.198;6.010;2024-03-06T05:21:58;9.50;73.20
84902;DHT22;75166;51.198;6.010;2024-03-06T05:24:24;9.60;73.10
84902;DHT22;75166;51.198;6.010;2024-03-06T05:26:49;9.60;73.00
84902;DHT22;75166;51.198;6.010;2024-03-06T05:29:16;9.60;73.00
84902;DHT22;75166;51.198;6.010;2024-03-06T05:31:42;9.60;73.10
84902;DHT22;75166;51.198;6.010;2024-03-06T05:34:07;9.50;73.10
84902;DHT22;75166;51.198;6.010;2024-03-06T05:36:33;9.50;73.20
84902;DHT22;75166;51.198;6.010;2024-03-06T05:38:59;9.50;73.10
84902;DHT22;75166;51.198;6.010;2024-03-06T05:41:24;9.50;73.10
84902;DHT22;75166;51.198;6.010;2024-03-06T05:43:50;9.50;73.90
84902;DHT22;75166;51.198;6.010;2024-03-06T05:46:16;9.50;72.80
84902;DHT22;75166;51.198;6.010;2024-03-06T05:48:42;9.50;72.60
84902;DHT22;75166;51.198;6.010;2024-03-06T05:51:07;9.50;72.60
84902;DHT22;75166;51.198;6.010;2024-03-06T05:53:37;9.50;72.70
84902;DHT22;75166;51.198;6.010;2024-03-06T05:56:05;9.40;72.90
84902;DHT22;75166;51.198;6.010;2024-03-06T05:58:31;9.40;72.90
84902;DHT22;75166;51.198;6.010;2024-03-06T06:00:57;9.40;72.90
84902;DHT22;75166;51.198;6.010;2024-03-06T06:03:22;9.40;72.90
84902;DHT22;75166;51.198;6.010;2024-03-06T06:05:48;9.40;72.80
84902;DHT22;75166;51.198;6.010;2024-03-06T06:08:13;9.50;72.80
84902;DHT22;75166;51.198;6.010;2024-03-06T06:10:39;9.40;72.60
84902;DHT22;75166;51.198;6.010;2024-03-06T06:13:05;9.40;72.70
84902;DHT22;75166;51.198;6.010;2024-03-06T06:15:30;9.30;72.70
84902;DHT22;75166;51.198;6.010;2024-03-06T06:17:56;9.30;72.90
84902;DHT22;75166;51.198;6.010;2024-03-06T06:20:22;9.30;72.80
84902;DHT22;75166;51.198;6.010;2024-03-06T06:22:47;9.30;72.60
84902;DHT22;75166;51.198;6.010;2024-03-06T06:25:13;9.30;72.50
84902;DHT22;75166;51.198;6.010;2024-03-06T06:27:41;9.30;72.50
84902;DHT22;75166;51.198;6.010;2024-03-06T06:30:07;9.30;72.40
84902;DHT22;75166;51.198;6.010;2024-03-06T06:32:37;9.30;72.40
84902;DHT22;75166;51.198;6.010;2024-03-06T06:35:04;9.30;72.50
84902;DHT22;75166;51.198;6.010;2024-03-06T06:37:30;9.20;72.50
84902;DHT22;75166;51.198;6.010;2024-03-06T06:39:56;9.20;72.70
84902;DHT22;75166;51.198;6.010;2024-03-06T06:42:21;9.20;72.70
84902;DHT22;75166;51.198;6.010;2024-03-06T06:44:47;9.20;72.50
84902;DHT22;75166;51.198;6.010;2024-03-06T06:47:13;9.20;72.50
84902;DHT22;75166;51.198;6.010;2024-03-06T06:49:38;9.20;72.50
84902;DHT22;75166;51.198;6.010;2024-03-06T06:52:04;9.20;72.40
84902;DHT22;75166;51.198;6.010;2024-03-06T06:54:30;9.20;72.50
84902;DHT22;75166;51.198;6.010;2024-03-06T06:56:55;9.10;72.60
84902;DHT22;75166;51.198;6.010;2024-03-06T06:59:21;9.10;72.80
84902;DHT22;75166;51.198;6.010;2024-03-06T07:01:48;9.00;72.90
84902;DHT22;75166;51.198;6.010;2024-03-06T07:04:14;9.00;72.90
84902;DHT22;75166;51.198;6.010;2024-03-06T07:06:42;9.00;72.80
84902;DHT22;75166;51.198;6.010;2024-03-06T07:09:07;9.00;72.80
84902;DHT22;75166;51.198;6.010;2024-03-06T07:11:34;9.10;72.80
84902;DHT22;75166;51.198;6.010;2024-03-06T07:14:00;9.10;72.50
84902;DHT22;75166;51.198;6.010;2024-03-06T07:16:26;9.10;72.70
84902;DHT22;75166;51.198;6.010;2024-03-06T07:18:51;9.00;72.70
84902;DHT22;75166;51.198;6.010;2024-03-06T07:21:17;9.00;73.00
84902;DHT22;75166;51.198;6.010;2024-03-06T07:23:43;9.00;73.10
84902;DHT22;75166;51.198;6.010;2024-03-06T07:26:09;9.00;73.10
84902;DHT22;75166;51.198;6.010;2024-03-06T07:28:35;8.90;73.00
84902;DHT22;75166;51.198;6.010;2024-03-06T07:31:03;9.00;73.10
84902;DHT22;75166;51.198;6.010;2024-03-06T07:33:28;9.00;73.10
84902;DHT22;75166;51.198;6.010;2024-03-06T07:35:54;9.00;73.10
84902;DHT22;75166;51.198;6.010;2024-03-06T07:38:20;8.90;73.10
84902;DHT22;75166;51.198;6.010;2024-03-06T07:40:46;8.90;73.20
84902;DHT22;75166;51.198;6.010;2024-03-06T07:43:11;8.90;73.60
84902;DHT22;75166;51.198;6.010;2024-03-06T07:45:37;8.90;73.50
84902;DHT22;75166;51.198;6.010;2024-03-06T07:48:03;8.90;73.50
84902;DHT22;75166;51.198;6.010;2024-03-06T07:50:29;8.90;73.40
84902;DHT22;75166;51.198;6.010;2024-03-06T07:52:55;8.90;73.50
84902;DHT22;75166;51.198;6.010;2024-03-06T07:55:20;8.90;73.30
84902;DHT22;75166;51.198;6.010;2024-03-06T07:57:47;8.90;73.30
84902;DHT22;75166;51.198;6.010;2024-03-06T08:00:14;8.90;73.50
84902;DHT22;75166;51.198;6.010;2024-03-06T08:02:40;8.90;73.70
84902;DHT22;75166;51.198;6.010;2024-03-06T08:05:10;8.80;73.80
84902;DHT22;75166;51.198;6.010;2024-03-06T08:07:40;8.90;73.90
84902;DHT22;75166;51.198;6.010;2024-03-06T08:10:11;8.90;73.80
84902;DHT22;75166;51.198;6.010;2024-03-06T08:12:42;8.90;73.70
84902;DHT22;75166;51.198;6.010;2024-03-06T08:15:10;8.90;73.80
84902;DHT22;75166;51.198;6.010;2024-03-06T08:17:39;8.90;73.60
84902;DHT22;75166;51.198;6.010;2024-03-06T08:20:05;8.90;73.60
84902;DHT22;75166;51.198;6.010;2024-03-06T08:22:36;8.90;73.80
84902;DHT22;75166;51.198;6.010;2024-03-06T08:25:08;8.90;74.00
84902;DHT22;75166;51.198;6.010;2024-03-06T08:27:34;8.90;74.00
84902;DHT22;75166;51.198;6.010;2024-03-06T08:30:00;8.90;73.90
84902;DHT22;75166;51.198;6.010;2024-03-06T08:32:26;8.90;73.70
84902;DHT22;75166;51.198;6.010;2024-03-06T08:34:53;9.00;73.80
84902;DHT22;75166;51.198;6.010;2024-03-06T08:37:18;9.00;73.70
84902;DHT22;75166;51.198;6.010;2024-03-06T08:39:44;9.00;73.70
84902;DHT22;75166;51.198;6.010;2024-03-06T08:42:11;9.00;73.80
84902;DHT22;75166;51.198;6.010;2024-03-06T08:44:37;8.90;73.70
84902;DHT22;75166;51.198;6.010;2024-03-06T08:47:03;9.00;74.00
84902;DHT22;75166;51.198;6.010;2024-03-06T08:49:29;9.00;73.90
84902;DHT22;75166;51.198;6.010;2024-03-06T08:51:55;9.00;73.80
84902;DHT22;75166;51.198;6.010;2024-03-06T08:54:21;9.00;73.70
84902;DHT22;75166;51.198;6.010;2024-03-06T08:56:47;9.00;73.70
84902;DHT22;75166;51.198;6.010;2024-03-06T08:59:12;9.10;73.70
84902;DHT22;75166;51.198;6.010;2024-03-06T09:01:38;9.00;73.60
84902;DHT22;75166;51.198;6.010;2024-03-06T09:04:04;9.00;73.70
84902;DHT22;75166;51.198;6.010;2024-03-06T09:06:29;9.00;73.80
84902;DHT22;75166;51.198;6.010;2024-03-06T09:08:55;9.00;73.90
84902;DHT22;75166;51.198;6.010;2024-03-06T09:11:21;9.10;73.90
84902;DHT22;75166;51.198;6.010;2024-03-06T09:13:47;9.10;73.80
84902;DHT22;75166;51.198;6.010;2024-03-06T09:16:13;9.10;73.70
84902;DHT22;75166;51.198;6.010;2024-03-06T09:18:39;9.10;73.60
84902;DHT22;75166;51.198;6.010;2024-03-06T09:21:04;9.20;73.70
84902;DHT22;75166;51.198;6.010;2024-03-06T09:23:30;9.20;73.60
84902;DHT22;75166;51.198;6.010;2024-03-06T09:25:58;9.10;73.60
84902;DHT22;75166;51.198;6.010;2024-03-06T09:28:23;9.10;73.80
84902;DHT22;75166;51.198;6.010;2024-03-06T09:30:49;9.10;73.80
84902;DHT22;75166;51.198;6.010;2024-03-06T09:33:14;9.20;73.80
84902;DHT22;75166;51.198;6.010;2024-03-06T09:35:40;9.20;73.60
84902;DHT22;75166;51.198;6.010;2024-03-06T09:38:11;9.20;73.60
84902;DHT22;75166;51.198;6.010;2024-03-06T09:40:38;9.20;73.60
84902;DHT22;75166;51.198;6.010;2024-03-06T09:43:06;9.20;73.50
84902;DHT22;75166;51.198;6.010;2024-03-06T09:45:32;9.20;73.60
84902;DHT22;75166;51.198;6.010;2024-03-06T09:47:58;9.20;73.70
84902;DHT22;75166;51.198;6.010;2024-03-06T09:50:24;9.20;73.80
84902;DHT22;75166;51.198;6.010;2024-03-06T09:52:52;9.30;73.80
84902;DHT22;75166;51.198;6.010;2024-03-06T09:55:20;9.30;73.60
84902;DHT22;75166;51.198;6.010;2024-03-06T09:57:46;9.30;73.60
84902;DHT22;75166;51.198;6.010;2024-03-06T10:00:12;9.30;73.50
84902;DHT22;75166;51.198;6.010;2024-03-06T10:02:46;9.30;73.60
84902;DHT22;75166;51.198;6.010;2024-03-06T10:05:21;9.30;73.60
84902;DHT22;75166;51.198;6.010;2024-03-06T10:07:48;9.30;73.60
84902;DHT22;75166;51.198;6.010;2024-03-06T10:10:14;9.40;73.80
84902;DHT22;75166;51.198;6.010;2024-03-06T10:12:41;9.30;73.70
84902;DHT22;75166;51.198;6.010;2024-03-06T10:15:08;9.40;73.70
84902;DHT22;75166;51.198;6.010;2024-03-06T10:17:38;9.40;73.60
84902;DHT22;75166;51.198;6.010;2024-03-06T10:20:23;9.40;73.60
84902;DHT22;75166;51.198;6.010;2024-03-06T10:22:53;9.40;73.60
84902;DHT22;75166;51.198;6.010;2024-03-06T10:25:23;9.50;73.70
84902;DHT22;75166;51.198;6.010;2024-03-06T10:28:09;9.50;73.70
84902;DHT22;75166;51.198;6.010;2024-03-06T10:30:39;9.50;73.70
84902;DHT22;75166;51.198;6.010;2024-03-06T10:33:08;9.50;74.60
84902;DHT22;75166;51.198;6.010;2024-03-06T10:35:35;9.50;73.70
84902;DHT22;75166;51.198;6.010;2024-03-06T10:38:04;9.50;73.80
84902;DHT22;75166;51.198;6.010;2024-03-06T10:40:41;9.60;73.80
84902;DHT22;75166;51.198;6.010;2024-03-06T10:43:07;9.60;73.70
84902;DHT22;75166;51.198;6.010;2024-03-06T10:46:07;9.70;73.80
84902;DHT22;75166;51.198;6.010;2024-03-06T10:48:36;9.70;74.00
84902;DHT22;75166;51.198;6.010;2024-03-06T10:51:03;9.70;73.70
84902;DHT22;75166;51.198;6.010;2024-03-06T10:53:31;9.70;73.90
84902;DHT22;75166;51.198;6.010;2024-03-06T10:55:58;9.80;73.80
84902;DHT22;75166;51.198;6.010;2024-03-06T10:58:26;9.80;73.90
84902;DHT22;75166;51.198;6.010;2024-03-06T11:00:53;9.80;73.70
84902;DHT22;75166;51.198;6.010;2024-03-06T11:03:20;9.90;73.70
84902;DHT22;75166;51.198;6.010;2024-03-06T11:05:46;9.90;73.70
84902;DHT22;75166;51.198;6.010;2024-03-06T11:08:14;10.00;73.70
84902;DHT22;75166;51.198;6.010;2024-03-06T11:10:41;10.00;73.70
84902;DHT22;75166;51.198;6.010;2024-03-06T11:13:23;10.00;73.70
84902;DHT22;75166;51.198;6.010;2024-03-06T11:15:50;10.10;73.70
84902;DHT22;75166;51.198;6.010;2024-03-06T11:23:27;10.20;73.10
84902;DHT22;75166;51.198;6.010;2024-03-06T11:30:49;10.40;73.30
84902;DHT22;75166;51.198;6.010;2024-03-06T11:33:20;10.40;73.30
84902;DHT22;75166;51.198;6.010;2024-03-06T11:39:08;10.50;73.00
84902;DHT22;75166;51.198;6.010;2024-03-06T11:44:01;10.60;72.70
84902;DHT22;75166;51.198;6.010;2024-03-06T11:46:56;10.70;72.50
84902;DHT22;75166;51.198;6.010;2024-03-06T11:49:32;10.70;72.50
84902;DHT22;75166;51.198;6.010;2024-03-06T11:52:06;10.70;72.50
84902;DHT22;75166;51.198;6.010;2024-03-06T11:54:33;10.70;72.70
84902;DHT22;75166;51.198;6.010;2024-03-06T11:57:01;10.70;72.70
84902;DHT22;75166;51.198;6.010;2024-03-06T11:59:28;10.70;72.50
84902;DHT22;75166;51.198;6.010;2024-03-06T12:02:01;10.70;72.50
84902;DHT22;75166;51.198;6.010;2024-03-06T12:04:27;10.80;72.50
84902;DHT22;75166;51.198;6.010;2024-03-06T12:06:57;10.80;72.30
84902;DHT22;75166;51.198;6.010;2024-03-06T12:09:30;10.90;72.50
84902;DHT22;75166;51.198;6.010;2024-03-06T12:11:56;10.90;72.60
84902;DHT22;75166;51.198;6.010;2024-03-06T12:14:25;10.90;72.70
84902;DHT22;75166;51.198;6.010;2024-03-06T12:16:59;11.00;72.70
84902;DHT22;75166;51.198;6.010;2024-03-06T12:19:35;11.00;72.50
84902;DHT22;75166;51.198;6.010;2024-03-06T12:22:04;11.10;72.30
84902;DHT22;75166;51.198;6.010;2024-03-06T12:24:30;11.10;72.20
84902;DHT22;75166;51.198;6.010;2024-03-06T12:27:01;11.10;72.20
84902;DHT22;75166;51.198;6.010;2024-03-06T12:29:29;11.10;72.10
84902;DHT22;75166;51.198;6.010;2024-03-06T12:31:59;11.10;72.10
84902;DHT22;75166;51.198;6.010;2024-03-06T12:34:25;11.10;72.10
84902;DHT22;75166;51.198;6.010;2024-03-06T12:36:50;11.10;72.40
84902;DHT22;75166;51.198;6.010;2024-03-06T12:39:17;11.20;72.30
84902;DHT22;75166;51.198;6.010;2024-03-06T12:41:47;11.20;72.10
84902;DHT22;75166;51.198;6.010;2024-03-06T12:44:12;11.20;72.10
84902;DHT22;75166;51.198;6.010;2024-03-06T12:46:38;11.20;72.10
84902;DHT22;75166;51.198;6.010;2024-03-06T12:49:04;11.20;72.30
84902;DHT22;75166;51.198;6.010;2024-03-06T12:51:29;11.10;72.30
84902;DHT22;75166;51.198;6.010;2024-03-06T12:53:55;11.20;72.40
84902;DHT22;75166;51.198;6.010;2024-03-06T12:56:21;11.20;72.50
84902;DHT22;75166;51.198;6.010;2024-03-06T12:58:46;11.30;72.30
84902;DHT22;75166;51.198;6.010;2024-03-06T13:01:12;11.30;72.20
84902;DHT22;75166;51.198;6.010;2024-03-06T13:03:38;11.30;72.00
84902;DHT22;75166;51.198;6.010;2024-03-06T13:06:04;11.30;72.10
84902;DHT22;75166;51.198;6.010;2024-03-06T13:08:33;11.30;72.20
84902;DHT22;75166;51.198;6.010;2024-03-06T13:10:59;11.30;72.10
84902;DHT22;75166;51.198;6.010;2024-03-06T13:13:25;11.40;72.20
84902;DHT22;75166;51.198;6.010;2024-03-06T13:15:53;11.60;72.10
84902;DHT22;75166;51.198;6.010;2024-03-06T13:18:19;11.40;72.30
84902;DHT22;75166;51.198;6.010;2024-03-06T13:20:45;11.50;72.00
84902;DHT22;75166;51.198;6.010;2024-03-06T13:23:11;11.50;71.80
84902;DHT22;75166;51.198;6.010;2024-03-06T13:25:37;11.50;71.80
84902;DHT22;75166;51.198;6.010;2024-03-06T13:28:03;11.50;71.70
84902;DHT22;75166;51.198;6.010;2024-03-06T13:30:30;11.50;71.20
84902;DHT22;75166;51.198;6.010;2024-03-06T13:32:56;11.60;71.80
84902;DHT22;75166;51.198;6.010;2024-03-06T13:35:22;11.60;71.40
84902;DHT22;75166;51.198;6.010;2024-03-06T13:37:47;11.60;71.30
84902;DHT22;75166;51.198;6.010;2024-03-06T13:40:14;11.60;71.40
84902;DHT22;75166;51.198;6.010;2024-03-06T13:42:41;11.60;71.40
84902;DHT22;75166;51.198;6.010;2024-03-06T13:45:07;11.80;72.50
84902;DHT22;75166;51.198;6.010;2024-03-06T13:47:45;11.70;71.70
84902;DHT22;75166;51.198;6.010;2024-03-06T13:50:13;11.80;71.80
84902;DHT22;75166;51.198;6.010;2024-03-06T13:52:39;11.70;71.40
84902;DHT22;75166;51.198;6.010;2024-03-06T13:55:05;11.80;71.30
84902;DHT22;75166;51.198;6.010;2024-03-06T13:57:32;11.80;71.40
84902;DHT22;75166;51.198;6.010;2024-03-06T14:00:05;11.90;71.60
84902;DHT22;75166;51.198;6.010;2024-03-06T14:02:32;11.90;71.70
84902;DHT22;75166;51.198;6.010;2024-03-06T14:04:58;12.00;71.50
84902;DHT22;75166;51.198;6.010;2024-03-06T14:07:23;12.00;71.40
84902;DHT22;75166;51.198;6.010;2024-03-06T14:09:50;12.00;71.70
84902;DHT22;75166;51.198;6.010;2024-03-06T14:12:16;12.10;71.50
84902;DHT22;75166;51.198;6.010;2024-03-06T14:14:42;12.20;71.30
84902;DHT22;75166;51.198;6.010;2024-03-06T14:17:08;12.20;71.20
84902;DHT22;75166;51.198;6.010;2024-03-06T14:19:34;12.30;71.10
84902;DHT22;75166;51.198;6.010;2024-03-06T14:21:59;12.30;70.90
84902;DHT22;75166;51.198;6.010;2024-03-06T14:24:25;12.30;70.80
84902;DHT22;75166;51.198;6.010;2024-03-06T14:26:51;12.30;70.50
84902;DHT22;75166;51.198;6.010;2024-03-06T14:29:16;12.30;70.50
84902;DHT22;75166;51.198;6.010;2024-03-06T14:31:42;12.30;70.50
84902;DHT22;75166;51.198;6.010;2024-03-06T14:34:07;12.40;70.60
84902;DHT22;75166;51.198;6.010;2024-03-06T14:36:33;12.40;70.40
84902;DHT22;75166;51.198;6.010;2024-03-06T14:39:00;12.40;70.50
84902;DHT22;75166;51.198;6.010;2024-03-06T14:41:26;12.40;69.30
84902;DHT22;75166;51.198;6.010;2024-03-06T14:43:51;12.40;69.50
84902;DHT22;75166;51.198;6.010;2024-03-06T14:46:17;12.40;69.60
84902;DHT22;75166;51.198;6.010;2024-03-06T14:48:43;12.50;69.80
84902;DHT22;75166;51.198;6.010;2024-03-06T14:51:10;12.50;69.70
84902;DHT22;75166;51.198;6.010;2024-03-06T14:53:35;12.50;69.70
84902;DHT22;75166;51.198;6.010;2024-03-06T14:56:02;12.50;69.70
84902;DHT22;75166;51.198;6.010;2024-03-06T14:58:27;12.50;69.70
84902;DHT22;75166;51.198;6.010;2024-03-06T15:00:53;12.50;69.70
84902;DHT22;75166;51.198;6.010;2024-03-06T15:03:19;12.50;69.50
84902;DHT22;75166;51.198;6.010;2024-03-06T15:05:45;12.50;69.50
84902;DHT22;75166;51.198;6.010;2024-03-06T15:08:15;12.50;69.30
84902;DHT22;75166;51.198;6.010;2024-03-06T15:10:41;12.60;69.40
84902;DHT22;75166;51.198;6.010;2024-03-06T15:13:07;12.60;69.40
84902;DHT22;75166;51.198;6.010;2024-03-06T15:15:35;12.60;69.50
84902;DHT22;75166;51.198;6.010;2024-03-06T15:18:01;12.60;69.80
84902;DHT22;75166;51.198;6.010;2024-03-06T15:20:26;12.60;69.80
84902;DHT22;75166;51.198;6.010;2024-03-06T15:22:53;12.60;70.00
84902;DHT22;75166;51.198;6.010;2024-03-06T15:25:19;12.60;70.20
84902;DHT22;75166;51.198;6.010;2024-03-06T15:27:45;12.70;70.20
84902;DHT22;75166;51.198;6.010;2024-03-06T15:30:11;12.70;70.20
84902;DHT22;75166;51.198;6.010;2024-03-06T15:32:39;12.70;70.40
84902;DHT22;75166;51.198;6.010;2024-03-06T15:35:05;12.80;70.50
84902;DHT22;75166;51.198;6.010;2024-03-06T15:37:31;12.80;70.40
84902;DHT22;75166;51.198;6.010;2024-03-06T15:39:57;12.80;70.30
84902;DHT22;75166;51.198;6.010;2024-03-06T15:42:24;12.90;70.20
84902;DHT22;75166;51.198;6.010;2024-03-06T15:44:52;12.90;70.00
84902;DHT22;75166;51.198;6.010;2024-03-06T15:47:19;12.90;70.00
84902;DHT22;75166;51.198;6.010;2024-03-06T15:49:46;12.90;69.00
84902;DHT22;75166;51.198;6.010;2024-03-06T15:52:12;13.00;69.30